Time;durP1;ratioP1;P1;durP2;ratioP2;P2;SDS_P1;SDS_P2;PMS_P1;PMS_P2;Temp;Humidity;BMP_temperature;BMP_pressure;BME280_temperature;BME280_humidity;BME280_pressure;Samples;Min_cycle;Max_cycle;Signal;HPM_P1;HPM_P2
2022/06/06 00:01:38;;;;;;;4.57;2.97;;;21.50;92.60;21.50;100345.00;;;;4968720;28;93303;-70
2022/06/06 00:04:04;;;;;;;5.20;3.13;;;21.30;93.20;21.50;100354.00;;;;4950791;28;112705;-70
2022/06/06 00:06:29;;;;;;;2.67;2.45;;;21.30;93.40;21.40;100362.00;;;;4984617;28;92504;-69
2022/06/06 00:08:57;;;;;;;2.60;2.40;;;21.30;93.60;21.40;100347.00;;;;4971031;28;122878;-70
2022/06/06 00:11:24;;;;;;;3.15;2.85;;;21.20;94.00;21.30;100348.00;;;;4934796;28;94759;-70
2022/06/06 00:13:49;;;;;;;4.07;3.60;;;21.10;94.40;21.30;100348.00;;;;4954323;28;92672;-70
2022/06/06 00:16:15;;;;;;;3.60;3.22;;;21.10;94.80;21.20;100348.00;;;;4986487;28;106644;-70
2022/06/06 00:18:41;;;;;;;5.70;3.30;;;21.10;95.30;21.20;100345.00;;;;4971003;28;121750;-70
2022/06/06 00:21:09;;;;;;;4.55;2.70;;;21.00;95.70;21.20;100348.00;;;;4986566;28;121796;-69
2022/06/06 00:23:36;;;;;;;3.35;3.05;;;21.00;95.50;21.20;100348.00;;;;4972854;28;92401;-69
2022/06/06 00:26:10;;;;;;;4.35;3.05;;;21.00;95.60;21.20;100348.00;;;;4972096;28;97243;-69
2022/06/06 00:28:40;;;;;;;3.13;2.72;;;21.00;95.60;21.20;100357.00;;;;4964500;28;94631;-69
2022/06/06 00:37:02;;;;;;;6.88;2.65;;;21.00;95.20;21.20;100353.00;;;;4986668;28;93052;-69
2022/06/06 00:39:27;;;;;;;4.13;2.97;;;21.00;95.10;21.20;100363.00;;;;4972370;28;93765;-70
2022/06/06 00:41:56;;;;;;;4.65;3.10;;;21.00;95.10;21.30;100363.00;;;;4988437;28;104679;-70
2022/06/06 00:44:31;;;;;;;3.58;3.17;;;21.00;95.20;21.30;100362.00;;;;4992321;28;92483;-69
2022/06/06 00:47:24;;;;;;;2.95;2.70;;;21.10;95.20;21.30;100359.00;;;;4991651;28;91974;-70
2022/06/06 00:49:55;;;;;;;3.45;3.05;;;21.10;95.00;21.30;100361.00;;;;4975165;28;92485;-69
2022/06/06 00:52:30;;;;;;;4.00;3.22;;;21.10;94.90;21.30;100360.00;;;;5011222;28;93326;-70
2022/06/06 00:55:02;;;;;;;4.93;3.03;;;21.10;94.80;21.30;100361.00;;;;4988955;28;92040;-69
2022/06/06 00:57:33;;;;;;;4.03;3.13;;;21.10;94.70;21.30;100346.00;;;;4972835;28;92504;-69
2022/06/06 01:00:07;;;;;;;4.80;2.63;;;21.20;94.40;21.40;100345.00;;;;4991068;28;113637;-69
2022/06/06 01:02:32;;;;;;;3.83;2.85;;;21.20;94.10;21.40;100356.00;;;;4981441;28;93402;-70
2022/06/06 01:05:11;;;;;;;2.97;2.67;;;21.20;93.70;21.40;100345.00;;;;4991550;28;109344;-70
2022/06/06 01:07:37;;;;;;;3.85;2.88;;;21.20;93.40;21.40;100346.00;;;;4972915;28;92840;-69
2022/06/06 01:10:04;;;;;;;5.32;2.88;;;21.20;93.30;21.40;100344.00;;;;4971778;28;120778;-69
2022/06/06 01:12:32;;;;;;;2.10;2.00;;;21.20;93.10;21.50;100339.00;;;;4972872;28;92433;-69
2022/06/06 01:15:06;;;;;;;4.40;2.45;;;21.30;92.90;21.50;100335.00;;;;5006647;28;109590;-69
2022/06/06 01:18:10;;;;;;;3.42;2.08;;;21.30;92.60;21.50;100336.00;;;;4990024;28;97693;-69
2022/06/06 01:21:07;;;;;;;2.83;2.47;;;21.30;92.40;21.50;100339.00;;;;4989892;28;92397;-69
2022/06/06 01:24:09;;;;;;;3.63;3.33;;;21.30;92.20;21.50;100352.00;;;;5005698;28;93603;-70
2022/06/06 01:27:24;;;;;;;4.35;2.83;;;21.30;92.50;21.50;100349.00;;;;4970744;28;93688;-69
2022/06/06 01:30:06;;;;;;;3.40;2.65;;;21.30;93.20;21.50;100349.00;;;;4951972;28;93284;-70
2022/06/06 01:32:41;;;;;;;2.67;2.15;;;21.30;93.90;21.50;100338.00;;;;4985418;28;92488;-70
2022/06/06 01:35:08;;;;;;;3.78;2.58;;;21.30;94.10;21.50;100345.00;;;;4985959;28;92219;-70
2022/06/06 01:37:43;;;;;;;3.42;2.53;;;21.30;94.50;21.60;100350.00;;;;4970854;28;92357;-70
2022/06/06 01:40:13;;;;;;;5.90;2.35;;;21.30;94.60;21.60;100345.00;;;;4971929;28;92332;-70
2022/06/06 01:42:54;;;;;;;2.80;2.42;;;21.40;95.50;21.60;100350.00;;;;4952787;28;93917;-69
2022/06/06 01:45:46;;;;;;;2.17;2.03;;;21.40;95.80;21.60;100356.00;;;;4970851;28;95771;-70
2022/06/06 01:48:18;;;;;;;4.50;2.30;;;21.40;95.90;21.70;100357.00;;;;4984307;28;103628;-70
2022/06/06 01:50:44;;;;;;;2.28;2.08;;;21.40;96.40;21.70;100356.00;;;;4969589;28;101920;-69
2022/06/06 01:53:15;;;;;;;4.18;2.25;;;21.50;97.20;21.70;100360.00;;;;4985070;28;92556;-70
2022/06/06 01:55:45;;;;;;;4.68;2.92;;;21.50;97.60;21.70;100367.00;;;;4985803;28;93571;-70
2022/06/06 01:58:17;;;;;;;2.85;2.30;;;21.50;98.70;21.70;100363.00;;;;4969217;28;109909;-70
2022/06/06 02:00:42;;;;;;;2.45;2.10;;;21.50;99.00;21.70;100374.00;;;;4986557;28;92435;-70
2022/06/06 02:03:09;;;;;;;3.78;2.00;;;21.50;99.80;21.60;100374.00;;;;4969105;28;121756;-67
2022/06/06 02:05:35;;;;;;;3.47;2.13;;;21.40;99.90;21.60;100379.00;;;;4970492;28;93394;-69
2022/06/06 02:08:01;;;;;;;2.20;2.00;;;21.40;99.90;21.60;100381.00;;;;4985481;28;92361;-70
2022/06/06 02:10:27;;;;;;;8.00;2.03;;;21.40;99.90;21.50;100380.00;;;;4970186;28;109222;-71
2022/06/06 02:12:53;;;;;;;2.67;1.77;;;21.40;99.90;21.50;100380.00;;;;4969943;28;121602;-69
2022/06/06 02:15:24;;;;;;;2.20;1.83;;;21.30;99.90;21.50;100380.00;;;;4970149;28;120725;-68
2022/06/06 02:17:52;;;;;;;2.58;2.05;;;21.30;99.90;21.40;100380.00;;;;4969790;28;92197;-68
2022/06/06 02:20:21;;;;;;;1.92;1.38;;;21.20;99.90;21.40;100377.00;;;;4971135;28;92766;-68
2022/06/06 02:22:47;;;;;;;1.55;1.45;;;21.20;99.90;21.40;100386.00;;;;4985107;28;92811;-69
2022/06/06 02:25:14;;;;;;;2.72;1.80;;;21.20;99.90;21.30;100377.00;;;;4986132;28;92470;-68
2022/06/06 02:27:41;;;;;;;3.33;2.13;;;21.10;99.90;21.30;100384.00;;;;4987511;28;92790;-69
2022/06/06 02:30:13;;;;;;;2.53;1.58;;;21.10;99.90;21.20;100394.00;;;;5005961;28;92803;-68
2022/06/06 02:32:40;;;;;;;3.58;1.70;;;21.10;99.90;21.20;100393.00;;;;4971321;28;95393;-68
2022/06/06 02:35:09;;;;;;;1.67;1.48;;;21.00;99.90;21.20;100388.00;;;;4953032;28;114420;-69
2022/06/06 02:37:34;;;;;;;1.33;1.20;;;21.00;99.90;21.10;100395.00;;;;4971932;28;91655;-69
2022/06/06 02:40:00;;;;;;;1.75;1.63;;;20.90;99.90;21.00;100391.00;;;;5004594;28;107568;-68
2022/06/06 02:42:26;;;;;;;1.75;1.40;;;20.90;99.90;21.00;100386.00;;;;4970176;28;122350;-68
2022/06/06 02:44:51;;;;;;;2.70;1.85;;;20.70;99.90;21.00;100391.00;;;;5003417;28;116986;-68
2022/06/06 02:47:17;;;;;;;5.18;1.98;;;20.80;99.90;20.90;100381.00;;;;4988905;28;109393;-68
2022/06/06 02:49:43;;;;;;;2.92;1.48;;;20.70;99.90;20.90;100377.00;;;;4991048;28;107765;-69
2022/06/06 02:52:11;;;;;;;2.78;1.20;;;20.70;99.90;20.80;100385.00;;;;5008914;28;121940;-68
2022/06/06 02:54:37;;;;;;;2.33;1.60;;;20.70;99.90;20.80;100393.00;;;;5010082;28;92005;-69
2022/06/06 02:57:03;;;;;;;2.00;1.75;;;20.60;99.90;20.70;100385.00;;;;4990471;28;92436;-70
2022/06/06 02:59:32;;;;;;;3.75;1.60;;;20.50;99.90;20.70;100386.00;;;;4988811;28;98328;-70
2022/06/06 03:01:58;;;;;;;1.42;1.10;;;20.50;99.90;20.60;100401.00;;;;4971896;28;92795;-70
2022/06/06 03:04:24;;;;;;;2.20;1.70;;;20.50;99.90;20.50;100412.00;;;;4987547;28;121793;-69
2022/06/06 03:07:20;;;;;;;2.90;1.55;;;20.40;99.90;20.30;100426.00;;;;5004345;28;109245;-70
2022/06/06 03:10:14;;;;;;;1.85;1.42;;;20.20;99.90;19.90;100440.00;;;;4990887;28;93703;-70
2022/06/06 03:13:20;;;;;;;1.95;1.55;;;20.00;99.90;19.60;100443.00;;;;5003803;28;109202;-69
2022/06/06 03:23:25;;;;;;;3.90;2.00;;;19.20;99.90;19.00;100456.00;;;;4971829;28;92014;-69
2022/06/06 03:26:51;;;;;;;2.15;1.58;;;19.00;99.90;18.90;100458.00;;;;4952512;28;94782;-69
2022/06/06 03:30:12;;;;;;;3.67;2.33;;;18.90;99.90;18.80;100476.00;;;;4996509;28;92429;-69
2022/06/06 03:33:10;;;;;;;3.80;2.17;;;18.80;99.90;18.70;100473.00;;;;5003608;28;91388;-68
2022/06/06 03:36:12;;;;;;;6.00;1.83;;;18.70;99.90;18.70;100474.00;;;;4972683;28;93415;-68
2022/06/06 03:39:00;;;;;;;1.67;1.42;;;18.70;99.90;18.70;100483.00;;;;4969957;28;93890;-68
2022/06/06 03:42:01;;;;;;;1.63;1.30;;;18.60;99.90;18.60;100481.00;;;;5003961;28;93771;-68
2022/06/06 03:44:49;;;;;;;2.60;1.77;;;18.60;99.90;18.60;100474.00;;;;5007745;28;92869;-68
2022/06/06 03:47:28;;;;;;;2.45;1.88;;;18.50;99.90;18.50;100476.00;;;;4992891;28;92520;-69
2022/06/06 03:50:01;;;;;;;3.03;2.15;;;18.40;99.90;18.40;100476.00;;;;5008073;28;94059;-69
2022/06/06 03:52:48;;;;;;;1.50;1.35;;;18.30;99.90;18.30;100473.00;;;;5006588;28;107647;-68
2022/06/06 03:55:27;;;;;;;1.92;1.58;;;18.30;99.90;18.20;100483.00;;;;5008659;28;92307;-74
2022/06/06 03:57:56;;;;;;;2.08;1.90;;;18.20;99.90;18.20;100481.00;;;;4974889;28;92690;-69
2022/06/06 04:00:23;;;;;;;4.50;2.33;;;18.10;99.90;18.10;100483.00;;;;4992482;28;91786;-67
2022/06/06 04:02:49;;;;;;;3.47;2.42;;;18.00;99.90;18.10;100481.00;;;;4991517;28;92011;-69
2022/06/06 04:05:22;;;;;;;3.08;1.60;;;18.00;99.90;18.00;100473.00;;;;5008183;28;99025;-68
2022/06/06 04:07:48;;;;;;;4.40;1.70;;;17.90;99.90;18.00;100472.00;;;;4992201;28;93023;-67
2022/06/06 04:10:15;;;;;;;1.85;1.50;;;17.90;99.90;18.00;100483.00;;;;4970860;28;111504;-66
2022/06/06 04:13:02;;;;;;;1.83;1.67;;;17.90;99.90;18.00;100470.00;;;;4972146;28;92494;-66
2022/06/06 04:15:56;;;;;;;2.63;2.03;;;17.90;99.90;17.90;100470.00;;;;4977333;28;92482;-67
2022/06/06 04:18:52;;;;;;;3.38;1.95;;;17.80;99.90;17.80;100474.00;;;;4973511;28;100424;-68
2022/06/06 04:21:33;;;;;;;2.35;2.00;;;17.80;99.90;17.80;100475.00;;;;5006266;28;110908;-68
2022/06/06 04:24:32;;;;;;;2.20;1.92;;;17.70;99.90;17.80;100466.00;;;;4991843;28;93302;-68
2022/06/06 04:27:32;;;;;;;2.33;2.05;;;17.70;99.90;17.80;100477.00;;;;4992877;28;91661;-68
2022/06/06 04:30:06;;;;;;;2.88;1.90;;;17.70;99.90;17.80;100469.00;;;;4992533;28;92377;-68
2022/06/06 04:33:02;;;;;;;1.77;1.67;;;17.70;99.90;17.80;100475.00;;;;4972997;28;93820;-69
2022/06/06 04:36:17;;;;;;;4.43;2.08;;;17.60;99.90;17.80;100472.00;;;;4990159;28;95069;-68
2022/06/06 04:39:06;;;;;;;2.30;2.15;;;17.60;99.90;17.70;100466.00;;;;4983280;28;92508;-68
2022/06/06 04:41:48;;;;;;;2.00;1.75;;;17.60;99.90;17.80;100467.00;;;;4991657;28;91845;-68
2022/06/06 04:44:33;;;;;;;5.75;3.05;;;17.60;99.90;17.80;100462.00;;;;4973568;28;94790;-69
2022/06/06 04:47:10;;;;;;;1.75;1.50;;;17.70;99.90;17.80;100469.00;;;;5006533;28;92243;-68
2022/06/06 04:49:36;;;;;;;2.65;1.95;;;17.70;99.90;17.80;100469.00;;;;5007070;28;92565;-69
2022/06/06 04:52:03;;;;;;;3.33;2.13;;;17.70;99.90;17.80;100473.00;;;;4978075;28;107630;-70
2022/06/06 04:54:32;;;;;;;5.70;2.65;;;17.70;99.90;17.80;100458.00;;;;4990474;28;99301;-70
2022/06/06 04:57:01;;;;;;;2.80;2.10;;;17.70;99.90;17.90;100470.00;;;;4986848;28;91944;-69
2022/06/06 04:59:29;;;;;;;2.17;1.98;;;17.70;99.90;17.90;100476.00;;;;4987354;28;92550;-71
2022/06/06 05:01:58;;;;;;;2.40;1.90;;;17.70;99.90;17.90;100472.00;;;;4990159;28;93440;-71
2022/06/06 05:04:24;;;;;;;5.88;3.25;;;17.80;99.90;17.90;100470.00;;;;4990974;28;116061;-70
2022/06/06 05:07:31;;;;;;;3.13;2.63;;;17.80;99.90;17.90;100479.00;;;;4988999;28;121573;-72
2022/06/06 05:10:33;;;;;;;2.95;2.22;;;17.80;99.90;18.00;100479.00;;;;4992333;28;92748;-72
2022/06/06 05:13:48;;;;;;;7.13;3.33;;;17.80;99.90;18.00;100480.00;;;;5001857;28;92703;-72
2022/06/06 05:16:42;;;;;;;3.95;2.78;;;17.90;99.90;18.00;100477.00;;;;4995725;28;93363;-71
2022/06/06 05:19:38;;;;;;;5.22;2.70;;;17.90;99.90;18.00;100486.00;;;;4967381;28;94960;-71
2022/06/06 05:22:18;;;;;;;2.42;2.22;;;17.90;99.90;18.10;100493.00;;;;5002281;28;98210;-70
2022/06/06 05:24:56;;;;;;;3.45;2.42;;;17.90;99.90;18.10;100494.00;;;;4996324;28;92179;-70
2022/06/06 05:27:53;;;;;;;2.72;2.53;;;18.00;99.90;18.20;100498.00;;;;4982142;28;93089;-70
2022/06/06 05:30:45;;;;;;;1.92;1.83;;;18.00;99.90;18.20;100498.00;;;;5006895;28;93444;-70
2022/06/06 05:33:33;;;;;;;3.05;2.05;;;18.00;99.90;18.20;100500.00;;;;5001324;28;92483;-70
2022/06/06 05:36:12;;;;;;;2.60;1.80;;;18.10;99.90;18.30;100493.00;;;;4987138;28;92968;-71
2022/06/06 05:39:00;;;;;;;2.70;2.08;;;18.10;99.90;18.30;100497.00;;;;4982052;28;109863;-70
2022/06/06 05:42:06;;;;;;;2.58;2.13;;;18.20;99.90;18.30;100510.00;;;;4999270;28;92542;-70
2022/06/06 05:44:56;;;;;;;2.15;1.80;;;18.20;99.90;18.40;100511.00;;;;5004851;28;92430;-69
2022/06/06 05:47:34;;;;;;;3.80;2.03;;;18.20;99.90;18.40;100517.00;;;;4986735;28;92372;-69
2022/06/06 05:50:35;;;;;;;4.40;2.03;;;18.30;99.90;18.50;100529.00;;;;4967907;28;94544;-69
2022/06/06 05:53:39;;;;;;;1.77;1.48;;;18.30;99.90;18.50;100534.00;;;;4988277;28;92745;-70
2022/06/06 05:56:43;;;;;;;1.88;1.70;;;18.30;99.90;18.50;100536.00;;;;4966262;28;106643;-69
2022/06/06 06:00:05;;;;;;;3.22;1.98;;;18.40;99.90;18.60;100541.00;;;;5005924;28;93888;-69
2022/06/06 06:02:51;;;;;;;1.55;1.23;;;18.40;99.90;18.70;100542.00;;;;4974428;28;92514;-69
2022/06/06 06:06:00;;;;;;;1.77;1.67;;;18.50;99.90;18.70;100546.00;;;;4964587;28;115580;-69
2022/06/06 06:09:19;;;;;;;2.13;1.45;;;18.60;99.90;18.80;100553.00;;;;4981813;28;101999;-68
2022/06/06 06:12:47;;;;;;;2.03;1.67;;;18.60;99.90;18.90;100546.00;;;;5001170;28;92569;-67
2022/06/06 06:15:28;;;;;;;3.25;1.38;;;18.70;99.90;19.00;100556.00;;;;4980661;28;112799;-67
2022/06/06 06:17:56;;;;;;;1.75;1.65;;;18.80;99.90;19.00;100554.00;;;;4986164;28;96150;-67
2022/06/06 06:20:31;;;;;;;1.45;1.35;;;18.80;99.90;19.10;100559.00;;;;4986488;28;91989;-68
2022/06/06 06:23:03;;;;;;;0.90;0.90;;;18.90;99.90;19.20;100555.00;;;;4981493;28;92968;-67
2022/06/06 06:25:38;;;;;;;1.58;1.05;;;19.00;99.90;19.40;100558.00;;;;4998985;28;95377;-68
2022/06/06 06:28:10;;;;;;;3.05;1.48;;;19.10;99.90;19.60;100550.00;;;;5003615;28;107924;-69
2022/06/06 06:31:08;;;;;;;1.98;1.75;;;19.30;99.90;19.80;100557.00;;;;4997040;28;93003;-67
2022/06/06 06:33:48;;;;;;;1.58;1.05;;;19.60;99.90;20.10;100553.00;;;;4971437;28;92660;-66
2022/06/06 06:36:18;;;;;;;1.80;1.50;;;19.80;99.90;20.30;100560.00;;;;4980424;28;92789;-66
2022/06/06 06:39:20;;;;;;;1.60;1.40;;;20.00;99.90;20.60;100547.00;;;;4981127;28;114755;-66
2022/06/06 06:42:05;;;;;;;1.50;1.27;;;20.30;99.90;20.80;100551.00;;;;4997795;28;92466;-66
2022/06/06 06:44:43;;;;;;;1.23;0.95;;;20.60;99.90;21.00;100549.00;;;;4982031;28;100223;-67
2022/06/06 06:47:17;;;;;;;1.58;1.48;;;20.80;99.90;21.20;100554.00;;;;5004444;28;113043;-67
2022/06/06 06:49:49;;;;;;;2.63;1.70;;;20.90;99.90;21.30;100561.00;;;;5013395;28;92488;-67
2022/06/06 06:53:03;;;;;;;1.30;1.20;;;21.10;99.90;21.40;100567.00;;;;5000707;28;103495;-67
2022/06/06 06:56:03;;;;;;;1.42;1.23;;;21.20;99.90;21.50;100559.00;;;;4982404;28;100126;-67
2022/06/06 06:58:54;;;;;;;1.20;1.10;;;21.30;99.90;21.50;100569.00;;;;4975187;28;107978;-67
2022/06/06 07:01:37;;;;;;;1.58;0.98;;;21.40;99.90;21.60;100561.00;;;;4982439;28;93125;-67
2022/06/06 07:11:30;;;;;;;1.15;1.05;;;21.70;99.90;22.00;100569.00;;;;4973903;28;92218;-68
2022/06/06 07:14:31;;;;;;;0.75;0.75;;;21.80;99.90;22.10;100572.00;;;;4999775;28;92484;-67
2022/06/06 07:16:59;;;;;;;1.23;1.13;;;21.90;99.90;22.20;100566.00;;;;4970213;28;92097;-67
2022/06/06 07:19:54;;;;;;;0.82;0.57;;;22.00;99.90;22.30;100570.00;;;;5004135;28;92567;-67
2022/06/06 07:22:21;;;;;;;1.88;0.90;;;22.00;99.90;22.50;100567.00;;;;4973817;28;114846;-68
2022/06/06 07:24:56;;;;;;;1.65;1.13;;;22.20;99.90;22.70;100559.00;;;;4998002;28;121266;-68
2022/06/06 07:27:22;;;;;;;1.10;1.00;;;22.40;99.90;22.90;100565.00;;;;5002565;28;99799;-67
2022/06/06 07:29:47;;;;;;;3.63;1.15;;;22.60;99.90;23.10;100570.00;;;;5002434;28;107825;-68
2022/06/06 07:32:37;;;;;;;0.75;0.75;;;22.80;99.90;23.20;100567.00;;;;5003893;28;122127;-67
2022/06/06 07:35:21;;;;;;;0.73;0.73;;;22.90;99.90;23.20;100565.00;;;;4981950;28;95417;-68
2022/06/06 07:38:17;;;;;;;0.80;0.70;;;23.00;99.90;23.30;100562.00;;;;4999749;28;92459;-68
2022/06/06 07:41:23;;;;;;;1.55;1.00;;;23.10;99.90;23.60;100569.00;;;;4964479;28;92173;-67
2022/06/06 07:44:45;;;;;;;0.65;0.65;;;23.30;99.90;23.80;100570.00;;;;4975498;28;94624;-68
2022/06/06 07:48:04;;;;;;;1.13;0.88;;;23.50;99.90;23.80;100569.00;;;;5005011;28;92813;-68
2022/06/06 07:51:12;;;;;;;2.00;1.17;;;23.70;99.90;23.90;100562.00;;;;5003008;28;92947;-67
2022/06/06 07:54:17;;;;;;;1.08;0.65;;;23.70;99.90;23.90;100568.00;;;;4988644;28;94329;-68
2022/06/06 07:57:24;;;;;;;0.98;0.93;;;23.80;99.80;23.90;100562.00;;;;4983894;28;95607;-68
2022/06/06 08:00:12;;;;;;;1.05;0.75;;;23.70;99.80;24.00;100569.00;;;;4978885;28;111865;-67
2022/06/06 08:02:56;;;;;;;1.98;0.82;;;23.80;99.70;24.20;100569.00;;;;4989056;28;92465;-67
2022/06/06 08:05:52;;;;;;;0.82;0.73;;;24.00;98.80;24.50;100570.00;;;;5000099;28;92270;-67
2022/06/06 08:08:32;;;;;;;2.10;0.82;;;24.10;98.80;24.70;100575.00;;;;4967211;28;95311;-67
2022/06/06 08:11:12;;;;;;;1.10;0.70;;;24.40;97.80;24.90;100571.00;;;;5000399;28;92841;-67
2022/06/06 08:14:19;;;;;;;1.60;0.90;;;24.60;96.50;25.10;100578.00;;;;5000947;28;101980;-68
2022/06/06 08:17:22;;;;;;;1.08;0.93;;;24.80;96.20;25.10;100578.00;;;;4993010;28;92402;-67
2022/06/06 08:19:56;;;;;;;0.70;0.70;;;25.00;95.30;25.30;100573.00;;;;4966056;28;95377;-68
2022/06/06 08:22:24;;;;;;;0.57;0.52;;;25.00;95.30;25.50;100570.00;;;;4985371;28;93553;-67
2022/06/06 08:24:55;;;;;;;0.93;0.90;;;25.20;95.00;25.70;100569.00;;;;5005179;28;92478;-69
2022/06/06 08:27:20;;;;;;;0.98;0.70;;;25.40;94.10;25.80;100568.00;;;;4981118;28;92525;-69
2022/06/06 08:29:48;;;;;;;0.85;0.70;;;25.60;93.30;26.00;100565.00;;;;5004938;28;121781;-69
2022/06/06 08:32:14;;;;;;;1.23;0.88;;;25.70;92.80;26.30;100566.00;;;;4962303;28;95099;-69
2022/06/06 08:34:41;;;;;;;1.15;1.05;;;26.00;91.30;26.50;100557.00;;;;4977765;28;92421;-68
2022/06/06 08:37:42;;;;;;;1.30;0.70;;;26.20;90.00;26.90;100556.00;;;;5000363;28;92442;-69
2022/06/06 08:40:49;;;;;;;0.60;0.57;;;26.50;90.10;27.30;100559.00;;;;4993090;28;91969;-69
2022/06/06 08:43:33;;;;;;;1.55;1.02;;;26.90;88.60;27.50;100567.00;;;;5001154;28;117211;-69
2022/06/06 08:46:28;;;;;;;1.10;0.90;;;27.20;86.60;27.70;100564.00;;;;5006371;28;92507;-68
2022/06/06 08:53:44;;;;;;;0.80;0.80;;;27.50;82.20;27.30;100559.00;;;;4929725;28;92710;-68
2022/06/06 08:57:05;;;;;;;0.40;0.40;;;27.30;79.40;26.90;100558.00;;;;4944177;28;92661;-68
2022/06/06 09:00:07;;;;;;;0.85;0.77;;;26.90;79.50;26.60;100554.00;;;;4904230;28;92069;-69
2022/06/06 09:02:50;;;;;;;1.30;0.60;;;26.60;79.00;26.60;100545.00;;;;4919370;28;92724;-68
2022/06/06 09:05:35;;;;;;;0.50;0.45;;;26.40;78.90;26.80;100544.00;;;;5003121;28;92431;-69
2022/06/06 09:08:48;;;;;;;0.63;0.52;;;26.50;77.80;27.10;100541.00;;;;5005395;28;93273;-68
2022/06/06 09:11:51;;;;;;;0.60;0.50;;;26.80;77.10;27.40;100543.00;;;;4985096;28;102611;-68
2022/06/06 09:14:42;;;;;;;0.63;0.63;;;27.00;74.90;27.60;100546.00;;;;5004468;28;92612;-69
2022/06/06 09:18:07;;;;;;;0.70;0.57;;;27.30;68.70;27.50;100541.00;;;;4981207;28;92851;-68
2022/06/06 09:21:21;;;;;;;0.50;0.45;;;27.20;68.20;27.50;100551.00;;;;4996248;28;93371;-68
2022/06/06 09:24:27;;;;;;;0.80;0.68;;;27.30;67.70;27.30;100547.00;;;;5001974;28;92551;-68
2022/06/06 09:27:45;;;;;;;3.20;1.10;;;27.20;67.00;27.20;100549.00;;;;4987829;28;92377;-68
2022/06/06 09:30:46;;;;;;;1.13;0.73;;;27.00;67.70;27.40;100549.00;;;;4984464;28;92618;-71
2022/06/06 09:33:30;;;;;;;0.63;0.45;;;27.10;68.10;27.50;100539.00;;;;4966810;28;115296;-70
2022/06/06 09:36:26;;;;;;;0.50;0.50;;;27.20;66.60;27.50;100547.00;;;;4967934;28;92900;-70
2022/06/06 09:39:25;;;;;;;0.40;0.40;;;27.20;66.00;27.40;100541.00;;;;4960506;28;94122;-71
2022/06/06 09:42:40;;;;;;;0.30;0.30;;;27.20;65.00;27.00;100533.00;;;;4954927;28;93834;-71
2022/06/06 09:45:09;;;;;;;0.38;0.38;;;26.90;62.80;27.10;100542.00;;;;4962664;28;92640;-72
2022/06/06 09:48:06;;;;;;;1.15;0.55;;;26.80;63.70;27.30;100533.00;;;;4976864;28;92384;-71
2022/06/06 09:51:20;;;;;;;0.30;0.30;;;26.90;63.50;27.70;100543.00;;;;4938753;28;93587;-71
2022/06/06 10:01:08;;;;;;;0.60;0.43;;;27.90;59.60;28.40;100521.00;;;;4979454;28;92453;-72
2022/06/06 10:04:02;;;;;;;1.17;0.77;;;28.00;58.60;28.40;100525.00;;;;4985618;28;92675;-71
2022/06/06 10:07:05;;;;;;;0.85;0.60;;;28.10;58.40;28.40;100542.00;;;;4978154;28;92550;-73
2022/06/06 10:10:13;;;;;;;0.65;0.57;;;28.10;58.90;28.50;100533.00;;;;4978394;28;92678;-70
2022/06/06 10:13:17;;;;;;;0.57;0.50;;;28.10;58.50;28.40;100527.00;;;;4944407;28;92108;-71
2022/06/06 10:16:20;;;;;;;0.60;0.45;;;28.10;57.90;28.40;100535.00;;;;4960092;28;92674;-72
2022/06/06 10:19:17;;;;;;;0.40;0.30;;;28.00;57.20;28.30;100542.00;;;;4975138;28;107304;-72
2022/06/06 10:22:15;;;;;;;1.23;0.68;;;27.90;56.10;28.30;100532.00;;;;4970677;28;93150;-71
2022/06/06 10:25:10;;;;;;;0.80;0.75;;;27.90;55.10;28.50;100536.00;;;;4988888;28;96333;-74
2022/06/06 10:28:17;;;;;;;0.70;0.60;;;27.90;55.20;28.60;100532.00;;;;4946246;28;92654;-72
2022/06/06 10:31:10;;;;;;;0.60;0.60;;;28.10;55.10;28.80;100537.00;;;;4981918;28;93057;-71
2022/06/06 10:34:14;;;;;;;0.50;0.50;;;28.30;55.20;28.70;100543.00;;;;4984136;28;94471;-73
2022/06/06 10:37:20;;;;;;;0.77;0.77;;;28.40;54.60;28.50;100551.00;;;;5010624;28;92760;-71
2022/06/06 10:40:10;;;;;;;1.13;0.60;;;28.20;54.60;28.10;100555.00;;;;4996724;28;92564;-72
2022/06/06 10:43:01;;;;;;;0.95;0.68;;;27.90;54.80;27.80;100562.00;;;;4985538;28;107374;-73
2022/06/06 10:45:37;;;;;;;0.73;0.60;;;27.60;55.40;27.40;100561.00;;;;4999791;28;92427;-72
2022/06/06 10:48:28;;;;;;;0.30;0.30;;;27.30;56.10;27.20;100558.00;;;;4959720;28;92471;-72
2022/06/06 10:54:40;;;;;;;0.47;0.40;;;26.90;57.00;27.30;100547.00;;;;5002529;28;92213;-72
2022/06/06 10:57:55;;;;;;;2.28;0.70;;;26.90;57.10;27.60;100552.00;;;;4966475;28;94205;-72
2022/06/06 11:01:12;;;;;;;0.85;0.80;;;27.20;56.90;28.10;100540.00;;;;4973966;28;93176;-73
2022/06/06 11:04:24;;;;;;;1.10;0.63;;;27.50;57.00;28.80;100550.00;;;;5000897;28;92603;-73
2022/06/06 11:07:20;;;;;;;0.50;0.40;;;28.00;56.80;29.30;100551.00;;;;5000320;28;92733;-72
2022/06/06 11:10:16;;;;;;;0.73;0.57;;;28.60;55.20;29.30;100542.00;;;;4994776;28;92550;-73
2022/06/06 11:13:14;;;;;;;0.55;0.38;;;28.80;54.30;29.10;100538.00;;;;5013150;28;91697;-73
2022/06/06 11:16:43;;;;;;;0.40;0.40;;;28.70;53.90;29.10;100552.00;;;;4981079;28;92251;-73
2022/06/06 11:19:57;;;;;;;1.20;0.68;;;28.70;54.00;29.60;100534.00;;;;4972709;28;108439;-73
2022/06/06 11:22:38;;;;;;;1.05;0.75;;;29.00;54.20;29.90;100531.00;;;;4957176;28;94023;-73
2022/06/06 11:25:51;;;;;;;0.47;0.47;;;29.40;52.70;30.20;100535.00;;;;4975736;28;92532;-73
2022/06/06 11:28:51;;;;;;;0.90;0.60;;;29.60;51.50;30.20;100530.00;;;;4963900;28;92665;-74
2022/06/06 11:31:45;;;;;;;0.50;0.50;;;29.70;51.10;30.20;100531.00;;;;4997445;28;93026;-73
2022/06/06 11:34:37;;;;;;;0.40;0.30;;;29.80;50.50;30.00;100529.00;;;;4967447;28;114465;-72
2022/06/06 11:37:48;;;;;;;1.05;0.93;;;29.70;50.60;29.90;100536.00;;;;4997869;28;92825;-73
2022/06/06 11:41:12;;;;;;;1.75;0.57;;;29.50;51.10;30.00;100530.00;;;;4991364;28;92478;-73
2022/06/06 11:44:09;;;;;;;1.73;1.08;;;29.50;51.40;29.90;100529.00;;;;4993767;28;91996;-73
2022/06/06 11:46:52;;;;;;;0.77;0.60;;;29.50;50.30;29.70;100523.00;;;;4976118;28;93352;-73
2022/06/06 11:49:30;;;;;;;0.57;0.57;;;29.40;49.60;29.50;100521.00;;;;4988985;28;92612;-73
2022/06/06 11:52:44;;;;;;;0.70;0.60;;;29.10;49.20;29.50;100515.00;;;;4981567;28;93524;-74
2022/06/06 11:55:59;;;;;;;0.75;0.50;;;29.10;49.90;29.90;100520.00;;;;4958914;28;95331;-73
2022/06/06 11:58:36;;;;;;;0.45;0.43;;;29.30;50.50;30.40;100522.00;;;;5010802;28;92421;-74
2022/06/06 12:01:37;;;;;;;1.05;0.50;;;29.80;50.00;30.70;100514.00;;;;4985912;28;91998;-74
2022/06/06 12:04:33;;;;;;;0.95;0.60;;;30.10;48.80;31.00;100504.00;;;;4980827;28;101223;-73
2022/06/06 12:11:22;;;;;;;1.10;0.80;;;30.50;47.70;30.90;100502.00;;;;4987153;28;92424;-74
2022/06/06 12:14:14;;;;;;;0.75;0.65;;;30.40;47.20;30.80;100510.00;;;;5001594;28;91753;-73
2022/06/06 12:17:16;;;;;;;0.47;0.47;;;30.40;47.10;30.40;100508.00;;;;4998593;28;92384;-74
2022/06/06 12:20:28;;;;;;;1.33;0.60;;;30.20;46.00;30.20;100510.00;;;;5001883;28;92400;-73
2022/06/06 12:23:34;;;;;;;0.73;0.73;;;29.90;47.30;29.80;100502.00;;;;4990037;28;94031;-73
2022/06/06 12:26:56;;;;;;;0.70;0.70;;;29.60;46.50;29.20;100497.00;;;;5007300;28;92621;-73
2022/06/06 12:29:33;;;;;;;0.73;0.63;;;29.10;47.20;28.90;100494.00;;;;4976635;28;92433;-72
2022/06/06 12:32:27;;;;;;;1.13;0.80;;;28.80;48.20;28.80;100495.00;;;;4979809;28;92490;-74
2022/06/06 12:35:00;;;;;;;0.77;0.50;;;28.60;48.70;28.80;100496.00;;;;4984518;28;92856;-72
2022/06/06 12:37:37;;;;;;;0.77;0.60;;;28.50;49.00;28.60;100496.00;;;;4992504;28;97804;-73
2022/06/06 12:40:24;;;;;;;1.52;1.20;;;28.30;49.30;28.60;100493.00;;;;4970737;28;92432;-74
2022/06/06 12:43:12;;;;;;;1.60;0.73;;;28.20;49.60;28.90;100489.00;;;;4985954;28;101055;-75
2022/06/06 12:45:57;;;;;;;1.85;1.15;;;28.30;49.90;29.20;100487.00;;;;4963351;28;110562;-73
2022/06/06 12:49:01;;;;;;;0.60;0.60;;;28.70;49.80;29.30;100481.00;;;;4976629;28;94407;-74